Time;durP1;ratioP1;P1;durP2;ratioP2;P2;SDS_P1;SDS_P2;PMS_P1;PMS_P2;Temp;Humidity;BMP_temperature;BMP_pressure;BME280_temperature;BME280_humidity;BME280_pressure;Samples;Min_cycle;Max_cycle;Signal;HPM_P1;HPM_P2
2021/08/09 00:01:51;;;;;;;1.46;1.36;;;;;;;21.43;70.03;100604.13;;;;-53
2021/08/09 00:04:52;;;;;;;1.85;1.37;;;;;;;21.43;70.01;100616.20;;;;-53
2021/08/09 00:07:52;;;;;;;1.73;1.52;;;;;;;21.43;70.09;100614.97;;;;-53
2021/08/09 00:10:51;;;;;;;1.41;1.31;;;;;;;21.42;70.05;100610.56;;;;-53
2021/08/09 00:13:51;;;;;;;1.50;1.40;;;;;;;21.41;70.08;100614.05;;;;-53
2021/08/09 00:16:52;;;;;;;2.01;1.55;;;;;;;21.41;70.12;100614.78;;;;-53
2021/08/09 00:19:51;;;;;;;1.50;1.40;;;;;;;21.40;70.01;100617.33;;;;-53
2021/08/09 00:22:52;;;;;;;1.83;1.40;;;;;;;21.40;70.05;100612.27;;;;-52
2021/08/09 00:25:52;;;;;;;1.60;1.39;;;;;;;21.40;70.11;100605.34;;;;-54
2021/08/09 00:28:51;;;;;;;1.63;1.40;;;;;;;21.39;70.08;100604.50;;;;-53
2021/08/09 00:31:52;;;;;;;1.61;1.51;;;;;;;21.39;70.16;100597.59;;;;-52
2021/08/09 00:34:52;;;;;;;1.48;1.37;;;;;;;21.37;70.07;100602.98;;;;-53
2021/08/09 00:37:52;;;;;;;1.54;1.44;;;;;;;21.38;70.07;100604.36;;;;-53
2021/08/09 00:40:51;;;;;;;2.31;1.57;;;;;;;21.37;70.14;100595.37;;;;-52
2021/08/09 00:43:52;;;;;;;1.55;1.43;;;;;;;21.38;70.11;100598.49;;;;-53
2021/08/09 00:46:51;;;;;;;1.51;1.41;;;;;;;21.37;70.10;100594.72;;;;-53
2021/08/09 00:49:52;;;;;;;1.46;1.36;;;;;;;21.36;70.08;100601.00;;;;-52
2021/08/09 00:52:51;;;;;;;1.54;1.41;;;;;;;21.36;70.20;100601.42;;;;-52
2021/08/09 00:55:52;;;;;;;1.30;1.21;;;;;;;21.36;70.12;100596.77;;;;-53
2021/08/09 00:58:54;;;;;;;1.65;1.41;;;;;;;21.35;70.11;100600.05;;;;-53
2021/08/09 01:01:51;;;;;;;1.40;1.30;;;;;;;21.35;70.10;100599.28;;;;-53
2021/08/09 01:04:51;;;;;;;1.69;1.47;;;;;;;21.35;70.14;100604.34;;;;-52
2021/08/09 01:07:52;;;;;;;2.53;1.39;;;;;;;21.34;70.17;100604.75;;;;-52
2021/08/09 01:10:53;;;;;;;1.82;1.42;;;;;;;21.34;70.14;100602.23;;;;-53
2021/08/09 01:13:52;;;;;;;1.51;1.40;;;;;;;21.35;70.12;100595.05;;;;-53
2021/08/09 01:16:52;;;;;;;1.51;1.37;;;;;;;21.33;70.12;100591.56;;;;-53
2021/08/09 01:19:51;;;;;;;1.57;1.47;;;;;;;21.34;70.13;100592.30;;;;-53
2021/08/09 01:22:52;;;;;;;1.53;1.39;;;;;;;21.33;70.16;100593.98;;;;-52
2021/08/09 01:25:51;;;;;;;1.55;1.40;;;;;;;21.33;70.19;100602.06;;;;-52
2021/08/09 01:28:51;;;;;;;1.45;1.35;;;;;;;21.32;70.13;100602.31;;;;-53
2021/08/09 01:31:52;;;;;;;1.50;1.40;;;;;;;21.32;70.14;100605.48;;;;-53
2021/08/09 01:34:51;;;;;;;1.90;1.50;;;;;;;21.32;70.21;100608.75;;;;-53
2021/08/09 01:37:51;;;;;;;1.40;1.30;;;;;;;21.32;70.19;100611.69;;;;-53
2021/08/09 01:40:52;;;;;;;1.51;1.41;;;;;;;21.31;70.17;100613.90;;;;-52
2021/08/09 01:43:51;;;;;;;2.43;1.40;;;;;;;21.31;70.20;100612.92;;;;-52
2021/08/09 01:46:51;;;;;;;1.42;1.32;;;;;;;21.30;70.14;100612.09;;;;-52
2021/08/09 01:49:52;;;;;;;1.45;1.33;;;;;;;21.31;70.17;100614.44;;;;-53
2021/08/09 01:52:51;;;;;;;1.47;1.37;;;;;;;21.31;70.23;100615.99;;;;-53
2021/08/09 01:55:51;;;;;;;1.81;1.30;;;;;;;21.30;70.18;100623.98;;;;-52
2021/08/09 01:58:52;;;;;;;1.45;1.31;;;;;;;21.30;70.15;100625.14;;;;-53
2021/08/09 02:01:51;;;;;;;1.42;1.32;;;;;;;21.30;70.21;100633.94;;;;-53
2021/08/09 02:04:51;;;;;;;1.81;1.41;;;;;;;21.29;70.12;100629.44;;;;-52
2021/08/09 02:07:51;;;;;;;1.42;1.32;;;;;;;21.29;70.13;100630.41;;;;-53
2021/08/09 02:10:51;;;;;;;1.67;1.41;;;;;;;21.30;70.19;100630.68;;;;-53
2021/08/09 02:13:52;;;;;;;1.40;1.30;;;;;;;21.28;70.17;100631.41;;;;-52
2021/08/09 02:16:52;;;;;;;1.50;1.40;;;;;;;21.28;70.17;100627.32;;;;-53
2021/08/09 02:19:51;;;;;;;1.88;1.38;;;;;;;21.27;70.11;100626.36;;;;-53
2021/08/09 02:22:52;;;;;;;1.64;1.39;;;;;;;21.28;70.11;100631.00;;;;-52
2021/08/09 02:25:52;;;;;;;1.53;1.38;;;;;;;21.27;70.15;100632.55;;;;-52
2021/08/09 02:28:51;;;;;;;1.31;1.22;;;;;;;21.27;70.11;100632.23;;;;-52
2021/08/09 02:31:51;;;;;;;2.47;1.29;;;;;;;21.26;70.12;100635.06;;;;-52
2021/08/09 02:34:52;;;;;;;1.50;1.40;;;;;;;21.26;70.22;100630.67;;;;-52
2021/08/09 02:37:51;;;;;;;1.53;1.43;;;;;;;21.25;70.15;100633.61;;;;-52
2021/08/09 02:40:51;;;;;;;1.62;1.41;;;;;;;21.26;70.18;100637.11;;;;-53
2021/08/09 02:43:52;;;;;;;1.40;1.30;;;;;;;21.25;70.22;100631.73;;;;-52
2021/08/09 02:46:51;;;;;;;1.49;1.39;;;;;;;21.25;70.07;100629.19;;;;-53
2021/08/09 02:49:51;;;;;;;1.47;1.33;;;;;;;21.24;70.12;100620.95;;;;-52
2021/08/09 02:52:52;;;;;;;1.65;1.42;;;;;;;21.25;70.21;100616.06;;;;-52
2021/08/09 02:55:51;;;;;;;2.21;1.38;;;;;;;21.24;70.20;100615.02;;;;-52
2021/08/09 02:58:52;;;;;;;1.40;1.30;;;;;;;21.24;70.17;100615.19;;;;-52
2021/08/09 03:01:52;;;;;;;1.49;1.39;;;;;;;21.24;70.15;100618.44;;;;-53
2021/08/09 03:04:51;;;;;;;1.55;1.45;;;;;;;21.23;70.15;100609.81;;;;-53
2021/08/09 03:07:52;;;;;;;1.46;1.36;;;;;;;21.23;70.22;100615.89;;;;-53
2021/08/09 03:10:51;;;;;;;1.40;1.30;;;;;;;21.22;70.21;100622.67;;;;-52
2021/08/09 03:13:52;;;;;;;1.27;1.20;;;;;;;21.22;70.12;100625.93;;;;-53
2021/08/09 03:16:52;;;;;;;1.40;1.30;;;;;;;21.22;70.15;100631.06;;;;-59
2021/08/09 03:19:51;;;;;;;1.46;1.36;;;;;;;21.22;70.22;100636.36;;;;-58
2021/08/09 03:22:51;;;;;;;1.43;1.33;;;;;;;21.22;70.23;100645.91;;;;-59
2021/08/09 03:25:52;;;;;;;1.44;1.34;;;;;;;21.22;70.20;100650.55;;;;-58
2021/08/09 03:28:52;;;;;;;1.43;1.31;;;;;;;21.22;70.19;100647.45;;;;-59
2021/08/09 03:31:51;;;;;;;2.02;1.30;;;;;;;21.21;70.27;100642.25;;;;-59
2021/08/09 03:34:52;;;;;;;1.46;1.36;;;;;;;21.20;70.28;100643.45;;;;-58
2021/08/09 03:37:51;;;;;;;1.62;1.52;;;;;;;21.21;70.23;100646.41;;;;-58
2021/08/09 03:40:52;;;;;;;1.29;1.20;;;;;;;21.20;70.27;100650.05;;;;-51
2021/08/09 03:43:52;;;;;;;1.51;1.33;;;;;;;21.19;70.22;100646.88;;;;-51
2021/08/09 03:46:51;;;;;;;1.35;1.25;;;;;;;21.19;70.26;100647.05;;;;-52
2021/08/09 03:49:52;;;;;;;1.30;1.21;;;;;;;21.19;70.29;100639.31;;;;-51
2021/08/09 03:52:52;;;;;;;2.20;1.40;;;;;;;21.19;70.28;100631.73;;;;-51
2021/08/09 03:55:51;;;;;;;1.50;1.40;;;;;;;21.18;70.29;100627.88;;;;-52
2021/08/09 03:58:51;;;;;;;1.52;1.40;;;;;;;21.17;70.20;100626.09;;;;-51
2021/08/09 04:01:52;;;;;;;1.39;1.29;;;;;;;21.18;70.22;100631.62;;;;-51
2021/08/09 04:04:51;;;;;;;1.39;1.29;;;;;;;21.18;70.22;100638.56;;;;-52
2021/08/09 04:07:53;;;;;;;1.40;1.30;;;;;;;21.17;70.23;100632.22;;;;-51
2021/08/09 04:10:51;;;;;;;1.53;1.40;;;;;;;21.17;70.28;100632.94;;;;-51
2021/08/09 04:13:51;;;;;;;1.39;1.29;;;;;;;21.16;70.23;100623.80;;;;-51
2021/08/09 04:16:51;;;;;;;1.49;1.39;;;;;;;21.17;70.28;100622.92;;;;-51
2021/08/09 04:19:51;;;;;;;1.40;1.30;;;;;;;21.16;70.25;100626.48;;;;-51
2021/08/09 04:22:51;;;;;;;1.40;1.30;;;;;;;21.17;70.23;100623.58;;;;-51
2021/08/09 04:25:52;;;;;;;1.41;1.31;;;;;;;21.16;70.23;100619.16;;;;-58
2021/08/09 04:28:51;;;;;;;1.65;1.35;;;;;;;21.15;70.32;100617.61;;;;-58
2021/08/09 04:31:51;;;;;;;1.47;1.37;;;;;;;21.15;70.25;100612.73;;;;-59
2021/08/09 04:34:52;;;;;;;1.48;1.38;;;;;;;21.15;70.24;100612.56;;;;-58
2021/08/09 04:37:51;;;;;;;1.39;1.29;;;;;;;21.14;70.32;100611.56;;;;-58
2021/08/09 04:40:51;;;;;;;1.42;1.32;;;;;;;21.14;70.27;100624.13;;;;-59
2021/08/09 04:43:52;;;;;;;1.65;1.40;;;;;;;21.14;70.26;100630.80;;;;-59
2021/08/09 04:46:51;;;;;;;1.59;1.38;;;;;;;21.14;70.30;100624.11;;;;-58
2021/08/09 04:49:51;;;;;;;1.80;1.21;;;;;;;21.13;70.28;100623.97;;;;-59
2021/08/09 04:52:51;;;;;;;1.51;1.41;;;;;;;21.14;70.32;100624.04;;;;-58
2021/08/09 04:55:51;;;;;;;1.39;1.29;;;;;;;21.13;70.35;100634.80;;;;-59
2021/08/09 04:58:51;;;;;;;1.57;1.31;;;;;;;21.13;70.33;100638.63;;;;-58
2021/08/09 05:01:52;;;;;;;1.40;1.30;;;;;;;21.13;70.26;100643.04;;;;-51
2021/08/09 05:04:51;;;;;;;1.30;1.20;;;;;;;21.13;70.29;100647.03;;;;-51
2021/08/09 05:07:51;;;;;;;1.35;1.25;;;;;;;21.13;70.29;100648.75;;;;-52
2021/08/09 05:10:52;;;;;;;1.40;1.30;;;;;;;21.12;70.30;100641.23;;;;-51
2021/08/09 05:13:51;;;;;;;1.55;1.29;;;;;;;21.12;70.34;100635.20;;;;-51
2021/08/09 05:16:52;;;;;;;1.45;1.35;;;;;;;21.12;70.29;100639.27;;;;-52
2021/08/09 05:19:52;;;;;;;1.41;1.31;;;;;;;21.12;70.34;100638.78;;;;-51
2021/08/09 05:22:52;;;;;;;1.16;1.16;;;;;;;21.11;70.29;100637.58;;;;-51
2021/08/09 05:25:52;;;;;;;1.51;1.41;;;;;;;21.12;70.29;100643.34;;;;-51
2021/08/09 05:28:51;;;;;;;1.40;1.30;;;;;;;21.11;70.26;100637.41;;;;-51
2021/08/09 05:31:51;;;;;;;1.40;1.30;;;;;;;21.11;70.26;100643.28;;;;-51
2021/08/09 05:34:52;;;;;;;1.48;1.38;;;;;;;21.11;70.29;100644.83;;;;-51
2021/08/09 05:37:51;;;;;;;1.33;1.23;;;;;;;21.12;70.28;100650.19;;;;-51
2021/08/09 05:40:51;;;;;;;1.45;1.35;;;;;;;21.11;70.30;100655.98;;;;-50
2021/08/09 05:43:52;;;;;;;1.43;1.33;;;;;;;21.11;70.27;100654.94;;;;-51
2021/08/09 05:46:51;;;;;;;1.40;1.30;;;;;;;21.11;70.30;100654.69;;;;-51
2021/08/09 05:49:53;;;;;;;1.40;1.30;;;;;;;21.11;70.35;100650.05;;;;-51
2021/08/09 05:52:52;;;;;;;1.41;1.31;;;;;;;21.09;70.28;100646.03;;;;-51
2021/08/09 05:55:51;;;;;;;1.30;1.20;;;;;;;21.09;70.33;100640.91;;;;-51
2021/08/09 05:58:51;;;;;;;1.40;1.30;;;;;;;21.09;70.30;100641.72;;;;-52
2021/08/09 06:01:52;;;;;;;1.33;1.25;;;;;;;21.09;70.32;100644.73;;;;-51
2021/08/09 06:04:51;;;;;;;1.55;1.30;;;;;;;21.09;70.37;100649.38;;;;-51
2021/08/09 06:07:51;;;;;;;1.55;1.36;;;;;;;21.09;70.35;100649.63;;;;-51
2021/08/09 06:10:52;;;;;;;1.40;1.30;;;;;;;21.10;70.30;100645.30;;;;-51
2021/08/09 06:13:51;;;;;;;1.37;1.27;;;;;;;21.09;70.35;100637.72;;;;-51
2021/08/09 06:16:51;;;;;;;1.40;1.30;;;;;;;21.09;70.28;100633.81;;;;-51
2021/08/09 06:19:51;;;;;;;1.85;1.30;;;;;;;21.08;70.33;100633.50;;;;-51
2021/08/09 06:22:51;;;;;;;1.38;1.28;;;;;;;21.08;70.33;100635.45;;;;-52
2021/08/09 06:25:54;;;;;;;1.39;1.29;;;;;;;21.08;70.38;100634.97;;;;-53
2021/08/09 06:28:51;;;;;;;1.46;1.36;;;;;;;21.08;70.38;100635.27;;;;-52
2021/08/09 06:31:51;;;;;;;1.59;1.25;;;;;;;21.07;70.33;100630.39;;;;-52
2021/08/09 06:34:51;;;;;;;2.45;1.81;;;;;;;21.07;67.81;100637.48;;;;-59
2021/08/09 06:37:51;;;;;;;2.17;1.92;;;;;;;20.96;65.77;100643.48;;;;-59
2021/08/09 06:40:51;;;;;;;2.51;2.10;;;;;;;20.86;64.96;100645.98;;;;-61
2021/08/09 06:43:51;;;;;;;3.93;2.03;;;;;;;20.80;65.94;100649.37;;;;-61
2021/08/09 06:46:51;;;;;;;4.48;2.07;;;;;;;20.81;66.31;100654.66;;;;-60
2021/08/09 06:49:51;;;;;;;3.29;2.01;;;;;;;20.82;67.03;100660.13;;;;-61
2021/08/09 06:52:51;;;;;;;5.48;2.14;;;;;;;20.84;67.49;100665.27;;;;-60
2021/08/09 06:55:51;;;;;;;3.46;1.96;;;;;;;20.87;67.71;100669.51;;;;-60
2021/08/09 06:58:51;;;;;;;2.98;2.02;;;;;;;20.88;68.00;100669.20;;;;-62
2021/08/09 07:01:52;;;;;;;2.35;1.87;;;;;;;20.90;68.13;100669.86;;;;-61
2021/08/09 07:04:51;;;;;;;2.56;1.88;;;;;;;20.90;68.17;100663.75;;;;-61
2021/08/09 07:07:52;;;;;;;2.43;1.83;;;;;;;20.91;68.17;100672.38;;;;-61
2021/08/09 07:10:52;;;;;;;3.74;2.09;;;;;;;20.91;68.27;100665.28;;;;-61
2021/08/09 07:13:52;;;;;;;2.41;2.00;;;;;;;20.92;68.39;100664.73;;;;-52
2021/08/09 07:16:52;;;;;;;3.07;1.91;;;;;;;20.93;68.44;100662.61;;;;-52
2021/08/09 07:19:51;;;;;;;3.19;2.06;;;;;;;20.93;68.50;100656.09;;;;-52
2021/08/09 07:22:51;;;;;;;1.95;1.70;;;;;;;20.93;68.47;100661.22;;;;-52
2021/08/09 07:25:52;;;;;;;2.69;1.83;;;;;;;20.94;68.51;100661.95;;;;-54
2021/08/09 07:28:51;;;;;;;2.25;1.88;;;;;;;20.93;68.62;100662.12;;;;-54
2021/08/09 07:31:51;;;;;;;2.13;1.80;;;;;;;20.93;68.71;100663.01;;;;-54
2021/08/09 07:34:51;;;;;;;2.17;1.78;;;;;;;20.94;68.72;100665.05;;;;-54
2021/08/09 07:37:52;;;;;;;2.09;1.81;;;;;;;20.94;68.82;100666.52;;;;-50
2021/08/09 07:40:51;;;;;;;2.01;1.67;;;;;;;20.96;68.91;100666.47;;;;-52
2021/08/09 07:43:51;;;;;;;3.46;1.79;;;;;;;20.98;68.93;100661.17;;;;-52
2021/08/09 07:46:51;;;;;;;2.42;1.80;;;;;;;21.00;69.05;100661.99;;;;-52
2021/08/09 07:49:51;;;;;;;3.59;1.83;;;;;;;21.03;69.08;100661.67;;;;-52
2021/08/09 07:52:51;;;;;;;2.16;1.79;;;;;;;21.04;69.12;100659.05;;;;-51
2021/08/09 07:55:53;;;;;;;2.91;1.72;;;;;;;21.06;69.15;100664.52;;;;-51
2021/08/09 07:58:51;;;;;;;2.49;1.82;;;;;;;21.07;69.25;100663.80;;;;-57
2021/08/09 08:01:51;;;;;;;2.93;1.93;;;;;;;21.09;69.27;100661.92;;;;-57
2021/08/09 08:04:51;;;;;;;2.94;1.87;;;;;;;21.11;69.33;100662.27;;;;-56
2021/08/09 08:07:51;;;;;;;2.47;1.73;;;;;;;21.12;69.33;100663.23;;;;-62
2021/08/09 08:10:51;;;;;;;2.29;1.63;;;;;;;21.14;69.35;100667.23;;;;-58
2021/08/09 08:13:51;;;;;;;2.29;1.65;;;;;;;21.14;69.40;100660.13;;;;-60
2021/08/09 08:16:51;;;;;;;6.63;2.03;;;;;;;21.15;69.36;100659.02;;;;-62
2021/08/09 08:19:51;;;;;;;2.21;1.83;;;;;;;21.16;69.42;100659.09;;;;-52
2021/08/09 08:22:53;;;;;;;2.33;1.89;;;;;;;21.17;69.34;100660.73;;;;-51
2021/08/09 08:25:52;;;;;;;3.42;1.91;;;;;;;21.17;69.38;100657.97;;;;-51
2021/08/09 08:28:51;;;;;;;2.67;1.69;;;;;;;21.18;69.40;100657.21;;;;-59
2021/08/09 08:31:51;;;;;;;2.82;1.85;;;;;;;21.19;69.45;100656.91;;;;-59
2021/08/09 08:34:52;;;;;;;1.90;1.74;;;;;;;21.19;69.47;100658.30;;;;-52
2021/08/09 08:37:53;;;;;;;2.16;1.83;;;;;;;21.19;69.24;100666.69;;;;-53
2021/08/09 08:40:52;;;;;;;3.12;1.68;;;;;;;21.19;69.44;100667.17;;;;-53
2021/08/09 08:43:51;;;;;;;2.47;1.71;;;;;;;21.19;69.43;100667.34;;;;-54
2021/08/09 08:46:51;;;;;;;2.49;1.63;;;;;;;21.20;69.37;100664.88;;;;-53
2021/08/09 08:49:51;;;;;;;1.77;1.60;;;;;;;21.20;69.38;100664.23;;;;-53
2021/08/09 08:52:52;;;;;;;2.15;1.84;;;;;;;21.19;69.46;100667.66;;;;-53
2021/08/09 08:55:51;;;;;;;1.74;1.62;;;;;;;21.20;69.41;100664.06;;;;-53
2021/08/09 08:58:51;;;;;;;2.18;1.61;;;;;;;21.20;69.37;100661.38;;;;-53
2021/08/09 09:01:51;;;;;;;2.81;1.71;;;;;;;21.20;69.37;100665.30;;;;-54
2021/08/09 09:04:51;;;;;;;2.49;1.83;;;;;;;21.20;69.39;100665.05;;;;-53
2021/08/09 09:07:51;;;;;;;2.47;1.70;;;;;;;21.20;69.43;100668.55;;;;-53
2021/08/09 09:10:51;;;;;;;2.27;1.77;;;;;;;21.19;69.43;100665.38;;;;-53
2021/08/09 09:13:51;;;;;;;2.04;1.73;;;;;;;21.19;69.39;100667.42;;;;-53
2021/08/09 09:16:52;;;;;;;1.73;1.63;;;;;;;21.19;69.41;100668.64;;;;-53
2021/08/09 09:19:51;;;;;;;1.72;1.62;;;;;;;21.20;69.41;100671.89;;;;-53
2021/08/09 09:22:51;;;;;;;1.94;1.74;;;;;;;21.19;69.34;100671.58;;;;-53
2021/08/09 09:25:51;;;;;;;1.84;1.60;;;;;;;21.20;69.42;100673.94;;;;-53
2021/08/09 09:28:52;;;;;;;2.17;1.70;;;;;;;21.19;69.33;100670.52;;;;-53
2021/08/09 09:31:51;;;;;;;4.93;1.73;;;;;;;21.20;69.41;100675.16;;;;-58
2021/08/09 09:34:51;;;;;;;3.08;1.63;;;;;;;21.20;69.43;100670.09;;;;-57
2021/08/09 09:37:51;;;;;;;3.21;1.59;;;;;;;21.22;69.40;100666.03;;;;-53
2021/08/09 09:40:51;;;;;;;4.17;1.72;;;;;;;21.22;69.40;100661.80;;;;-51
2021/08/09 09:43:51;;;;;;;8.71;1.75;;;;;;;21.25;69.69;100657.73;;;;-48
2021/08/09 09:46:51;;;;;;;6.33;1.84;;;;;;;21.26;69.75;100661.15;;;;-53
2021/08/09 09:49:51;;;;;;;4.67;1.80;;;;;;;21.27;69.65;100663.78;;;;-59
2021/08/09 09:52:51;;;;;;;3.79;1.83;;;;;;;21.27;69.97;100668.58;;;;-58
2021/08/09 09:55:52;;;;;;;4.63;1.78;;;;;;;21.29;70.04;100672.75;;;;-58
2021/08/09 09:58:51;;;;;;;4.14;2.08;;;;;;;21.30;70.12;100670.95;;;;-63
2021/08/09 10:01:52;;;;;;;4.51;1.87;;;;;;;21.30;70.07;100671.44;;;;-61
2021/08/09 10:04:51;;;;;;;5.65;1.90;;;;;;;21.30;70.03;100675.34;;;;-58
2021/08/09 10:07:51;;;;;;;3.37;1.86;;;;;;;21.32;70.06;100674.46;;;;-54
2021/08/09 10:10:51;;;;;;;3.51;1.87;;;;;;;21.33;70.11;100662.55;;;;-59
2021/08/09 10:13:51;;;;;;;3.39;1.91;;;;;;;21.33;70.07;100670.53;;;;-58
2021/08/09 10:16:51;;;;;;;3.95;1.79;;;;;;;21.35;70.00;100673.97;;;;-57
2021/08/09 10:19:51;;;;;;;3.36;1.79;;;;;;;21.35;70.07;100672.98;;;;-59
2021/08/09 10:22:51;;;;;;;5.59;1.80;;;;;;;21.36;70.06;100674.14;;;;-57
2021/08/09 10:25:51;;;;;;;3.57;1.81;;;;;;;21.36;70.03;100678.13;;;;-64
2021/08/09 10:28:51;;;;;;;4.45;1.91;;;;;;;21.37;69.99;100677.38;;;;-56
2021/08/09 10:31:52;;;;;;;3.56;1.85;;;;;;;21.38;70.00;100678.78;;;;-60
2021/08/09 10:34:51;;;;;;;4.68;2.06;;;;;;;21.40;69.98;100679.53;;;;-48
2021/08/09 10:37:51;;;;;;;4.59;1.84;;;;;;;21.40;69.98;100674.97;;;;-47
2021/08/09 10:40:51;;;;;;;3.11;1.81;;;;;;;21.40;69.94;100674.96;;;;-49
2021/08/09 10:43:51;;;;;;;6.21;1.79;;;;;;;21.41;69.93;100676.98;;;;-51
2021/08/09 10:46:53;;;;;;;3.59;1.66;;;;;;;21.42;69.95;100669.75;;;;-51
2021/08/09 10:49:52;;;;;;;4.71;2.12;;;;;;;21.43;69.76;100664.31;;;;-52
2021/08/09 10:52:51;;;;;;;2.47;1.80;;;;;;;21.43;69.79;100656.41;;;;-49
2021/08/09 10:55:51;;;;;;;4.55;1.95;;;;;;;21.42;69.76;100658.83;;;;-49
2021/08/09 10:58:52;;;;;;;2.83;1.75;;;;;;;21.42;69.69;100660.97;;;;-57
2021/08/09 11:01:51;;;;;;;5.22;1.85;;;;;;;21.42;69.69;100665.54;;;;-57
2021/08/09 11:04:51;;;;;;;2.70;1.93;;;;;;;21.42;69.69;100677.50;;;;-51
2021/08/09 11:07:51;;;;;;;2.29;1.72;;;;;;;21.41;69.61;100678.13;;;;-57
2021/08/09 11:11:51;;;;;;;4.23;1.82;;;;;;;21.42;69.69;100679.95;;;;-52
2021/08/09 11:14:51;;;;;;;2.15;1.70;;;;;;;21.41;69.58;100683.35;;;;-49
2021/08/09 11:18:51;;;;;;;2.67;1.83;;;;;;;21.41;69.56;100684.58;;;;-49
2021/08/09 11:21:55;;;;;;;2.99;1.77;;;;;;;21.40;69.64;100684.17;;;;-51
2021/08/09 11:24:51;;;;;;;3.11;1.70;;;;;;;21.41;69.63;100686.86;;;;-51
2021/08/09 11:27:51;;;;;;;2.56;1.65;;;;;;;21.40;69.58;100680.09;;;;-52
2021/08/09 11:30:51;;;;;;;3.01;1.54;;;;;;;21.41;69.50;100677.56;;;;-49
2021/08/09 11:33:51;;;;;;;3.15;1.53;;;;;;;21.41;69.52;100671.52;;;;-49
2021/08/09 11:36:51;;;;;;;2.80;1.70;;;;;;;21.40;69.55;100662.48;;;;-49
2021/08/09 11:39:51;;;;;;;2.30;1.63;;;;;;;21.41;69.54;100664.76;;;;-49
2021/08/09 11:42:51;;;;;;;2.37;1.60;;;;;;;21.40;69.52;100654.91;;;;-56
2021/08/09 11:45:51;;;;;;;2.59;1.58;;;;;;;21.41;69.51;100648.29;;;;-57
2021/08/09 11:48:51;;;;;;;2.37;1.53;;;;;;;21.41;69.46;100648.62;;;;-57
2021/08/09 11:51:51;;;;;;;3.33;1.73;;;;;;;21.41;69.50;100645.59;;;;-57
2021/08/09 11:54:51;;;;;;;2.19;1.69;;;;;;;21.41;69.47;100647.40;;;;-57
2021/08/09 11:57:51;;;;;;;2.93;1.73;;;;;;;21.41;69.46;100645.52;;;;-57
2021/08/09 12:00:51;;;;;;;3.13;1.73;;;;;;;21.41;69.44;100644.87;;;;-57
2021/08/09 12:03:51;;;;;;;1.84;1.60;;;;;;;21.41;69.45;100648.54;;;;-57
2021/08/09 12:06:51;;;;;;;2.73;1.55;;;;;;;21.41;69.48;100656.28;;;;-58
2021/08/09 12:09:51;;;;;;;4.21;1.69;;;;;;;21.40;69.46;100642.75;;;;-57
2021/08/09 12:12:51;;;;;;;3.07;1.71;;;;;;;21.41;69.48;100643.23;;;;-57
2021/08/09 12:15:51;;;;;;;2.40;1.63;;;;;;;21.41;69.51;100654.23;;;;-49
2021/08/09 12:18:51;;;;;;;2.71;1.79;;;;;;;21.42;69.50;100645.87;;;;-49
2021/08/09 12:21:51;;;;;;;3.32;1.86;;;;;;;21.41;69.42;100635.24;;;;-51
2021/08/09 12:24:51;;;;;;;2.89;2.06;;;;;;;21.41;69.44;100642.83;;;;-52
2021/08/09 12:27:51;;;;;;;3.78;1.81;;;;;;;21.43;69.44;100637.39;;;;-57
2021/08/09 12:30:52;;;;;;;4.19;2.43;;;;;;;21.42;69.45;100632.33;;;;-57
2021/08/09 12:33:51;;;;;;;6.93;2.57;;;;;;;21.42;69.46;100633.47;;;;-58
2021/08/09 12:36:51;;;;;;;4.60;2.40;;;;;;;21.42;69.45;100634.37;;;;-57
2021/08/09 12:39:51;;;;;;;4.14;2.52;;;;;;;21.42;69.51;100632.11;;;;-57
2021/08/09 12:42:51;;;;;;;6.15;2.63;;;;;;;21.42;69.42;100637.80;;;;-57
2021/08/09 12:45:53;;;;;;;3.57;2.48;;;;;;;21.42;69.43;100641.98;;;;-57
2021/08/09 12:48:51;;;;;;;5.14;2.55;;;;;;;21.41;69.51;100642.50;;;;-57
2021/08/09 12:51:51;;;;;;;4.31;2.53;;;;;;;21.40;69.46;100640.47;;;;-52
2021/08/09 12:54:51;;;;;;;4.41;2.67;;;;;;;21.41;69.48;100639.57;;;;-52
2021/08/09 12:57:53;;;;;;;5.07;2.84;;;;;;;21.40;69.49;100641.77;;;;-52
2021/08/09 13:00:51;;;;;;;5.43;2.95;;;;;;;21.41;69.44;100639.16;;;;-52
2021/08/09 13:03:51;;;;;;;5.69;3.15;;;;;;;21.40;69.49;100638.67;;;;-52
2021/08/09 13:06:51;;;;;;;6.26;3.28;;;;;;;21.40;69.49;100625.88;;;;-52
2021/08/09 13:09:51;;;;;;;6.49;3.23;;;;;;;21.40;69.47;100618.95;;;;-52
2021/08/09 13:12:51;;;;;;;5.64;3.19;;;;;;;21.40;69.47;100623.27;;;;-51
2021/08/09 13:15:51;;;;;;;6.89;3.29;;;;;;;21.39;69.59;100625.81;;;;-50
2021/08/09 13:18:51;;;;;;;6.82;3.47;;;;;;;21.40;69.64;100627.10;;;;-48
2021/08/09 13:21:51;;;;;;;7.99;3.61;;;;;;;21.42;69.59;100618.14;;;;-48
2021/08/09 13:24:52;;;;;;;7.23;4.19;;;;;;;21.43;69.64;100630.14;;;;-58
2021/08/09 13:27:51;;;;;;;9.37;4.80;;;;;;;21.45;69.72;100640.02;;;;-59
2021/08/09 13:30:51;;;;;;;8.82;4.91;;;;;;;21.46;69.70;100625.59;;;;-62
2021/08/09 13:33:52;;;;;;;10.04;5.50;;;;;;;21.47;69.81;100635.12;;;;-52
2021/08/09 13:36:51;;;;;;;10.69;5.77;;;;;;;21.49;69.75;100633.02;;;;-51
2021/08/09 13:39:51;;;;;;;11.23;6.23;;;;;;;21.50;69.76;100640.52;;;;-52
2021/08/09 13:42:56;;;;;;;12.44;6.25;;;;;;;21.51;69.93;100642.55;;;;-53
2021/08/09 13:45:51;;;;;;;12.71;6.49;;;;;;;21.53;69.98;100634.48;;;;-50
2021/08/09 13:48:51;;;;;;;12.52;6.51;;;;;;;21.53;69.70;100635.30;;;;-55
2021/08/09 13:51:51;;;;;;;15.42;6.75;;;;;;;21.54;69.94;100629.90;;;;-51
2021/08/09 13:54:51;;;;;;;12.16;6.31;;;;;;;21.55;69.89;100628.52;;;;-52
2021/08/09 13:57:51;;;;;;;14.21;6.56;;;;;;;21.56;69.99;100628.36;;;;-55
2021/08/09 14:00:51;;;;;;;14.26;6.75;;;;;;;21.56;69.90;100625.98;;;;-55
2021/08/09 14:03:51;;;;;;;13.62;6.35;;;;;;;21.57;69.97;100625.67;;;;-60
2021/08/09 14:06:51;;;;;;;14.03;6.72;;;;;;;21.58;70.00;100628.84;;;;-51
2021/08/09 14:09:51;;;;;;;13.75;6.50;;;;;;;21.59;70.01;100622.83;;;;-50
2021/08/09 14:12:51;;;;;;;10.65;6.15;;;;;;;21.59;70.01;100619.80;;;;-50
2021/08/09 14:15:55;;;;;;;10.66;6.34;;;;;;;21.61;70.01;100615.24;;;;-50
2021/08/09 14:18:51;;;;;;;10.47;6.11;;;;;;;21.60;69.95;100604.13;;;;-52
2021/08/09 14:21:51;;;;;;;17.22;6.79;;;;;;;21.62;69.94;100601.03;;;;-57
2021/08/09 14:24:51;;;;;;;15.32;6.39;;;;;;;21.62;69.94;100607.50;;;;-52
2021/08/09 14:27:51;;;;;;;10.79;6.29;;;;;;;21.64;69.90;100610.83;;;;-55
2021/08/09 14:30:51;;;;;;;10.72;6.18;;;;;;;21.64;69.86;100616.04;;;;-51
2021/08/09 14:33:51;;;;;;;12.23;6.31;;;;;;;21.64;69.94;100615.22;;;;-54
2021/08/09 14:36:51;;;;;;;10.13;6.19;;;;;;;21.65;69.94;100613.36;;;;-53
2021/08/09 14:39:51;;;;;;;10.81;6.33;;;;;;;21.65;69.93;100611.17;;;;-51
2021/08/09 14:42:51;;;;;;;12.38;6.07;;;;;;;21.65;69.88;100615.48;;;;-55
2021/08/09 14:45:51;;;;;;;9.47;5.93;;;;;;;21.66;69.93;100619.22;;;;-52
2021/08/09 14:48:51;;;;;;;11.55;6.58;;;;;;;21.66;69.93;100621.02;;;;-50
2021/08/09 14:51:51;;;;;;;11.30;5.77;;;;;;;21.67;69.83;100611.25;;;;-49
2021/08/09 14:54:51;;;;;;;11.50;6.15;;;;;;;21.68;69.84;100612.30;;;;-50
2021/08/09 14:57:51;;;;;;;10.93;6.05;;;;;;;21.68;69.80;100609.27;;;;-53
2021/08/09 15:00:52;;;;;;;11.08;6.07;;;;;;;21.69;69.96;100615.97;;;;-53
2021/08/09 15:03:51;;;;;;;10.09;6.13;;;;;;;21.69;69.75;100614.50;;;;-49
2021/08/09 15:06:51;;;;;;;9.29;6.33;;;;;;;21.70;69.88;100614.23;;;;-51
2021/08/09 15:09:51;;;;;;;9.63;6.01;;;;;;;21.71;69.84;100613.13;;;;-52
2021/08/09 15:12:52;;;;;;;10.05;6.07;;;;;;;21.71;69.83;100616.14;;;;-51
2021/08/09 15:15:51;;;;;;;10.24;6.11;;;;;;;21.71;69.87;100616.87;;;;-53
2021/08/09 15:18:51;;;;;;;8.80;5.75;;;;;;;21.71;69.84;100622.59;;;;-54
2021/08/09 15:21:51;;;;;;;8.88;5.77;;;;;;;21.71;69.92;100620.62;;;;-52
2021/08/09 15:24:51;;;;;;;11.12;5.94;;;;;;;21.70;69.65;100623.54;;;;-55
2021/08/09 15:27:51;;;;;;;9.92;5.86;;;;;;;21.71;69.80;100619.89;;;;-60
2021/08/09 15:30:51;;;;;;;9.47;5.92;;;;;;;21.70;69.72;100616.61;;;;-60
2021/08/09 15:33:51;;;;;;;14.68;5.75;;;;;;;21.69;69.71;100621.19;;;;-60
2021/08/09 15:36:51;;;;;;;8.80;5.57;;;;;;;21.69;69.68;100619.06;;;;-56
2021/08/09 15:39:51;;;;;;;15.78;6.03;;;;;;;21.70;69.58;100623.70;;;;-54
2021/08/09 15:42:51;;;;;;;10.77;5.61;;;;;;;21.71;69.61;100621.20;;;;-55
2021/08/09 15:45:51;;;;;;;12.71;5.65;;;;;;;21.72;69.74;100621.99;;;;-49
2021/08/09 15:48:51;;;;;;;14.57;5.73;;;;;;;21.73;69.77;100618.02;;;;-53
2021/08/09 15:51:51;;;;;;;11.25;5.29;;;;;;;21.73;69.70;100610.59;;;;-56
2021/08/09 15:54:51;;;;;;;12.27;5.74;;;;;;;21.72;69.69;100611.95;;;;-55
2021/08/09 15:57:51;;;;;;;10.47;5.47;;;;;;;21.72;69.68;100607.80;;;;-55
2021/08/09 16:00:51;;;;;;;9.33;5.49;;;;;;;21.72;69.66;100608.62;;;;-55
2021/08/09 16:03:51;;;;;;;11.46;5.35;;;;;;;21.72;69.60;100607.81;;;;-56
2021/08/09 16:06:51;;;;;;;12.71;5.67;;;;;;;21.70;69.67;100608.61;;;;-56
2021/08/09 16:09:51;;;;;;;10.97;5.39;;;;;;;21.70;69.62;100609.27;;;;-56
2021/08/09 16:12:51;;;;;;;13.24;5.31;;;;;;;21.69;69.54;100611.33;;;;-55
2021/08/09 16:15:51;;;;;;;11.09;5.04;;;;;;;21.70;69.57;100608.21;;;;-58
2021/08/09 16:18:51;;;;;;;8.91;5.31;;;;;;;21.71;69.64;100609.69;;;;-61
2021/08/09 16:21:51;;;;;;;8.74;5.37;;;;;;;21.72;69.69;100609.11;;;;-62
2021/08/09 16:24:51;;;;;;;11.34;5.41;;;;;;;21.73;69.64;100609.75;;;;-60
2021/08/09 16:27:51;;;;;;;7.67;5.01;;;;;;;21.73;69.66;100611.55;;;;-57
2021/08/09 16:30:51;;;;;;;8.12;4.86;;;;;;;21.73;69.70;100605.78;;;;-52
2021/08/09 16:33:51;;;;;;;14.15;5.16;;;;;;;21.74;69.77;100606.83;;;;-52
2021/08/09 16:36:52;;;;;;;8.19;5.03;;;;;;;21.74;69.78;100609.03;;;;-53
2021/08/09 16:39:52;;;;;;;16.42;5.21;;;;;;;21.74;69.64;100611.96;;;;-56
2021/08/09 16:42:53;;;;;;;9.99;5.20;;;;;;;21.74;69.71;100611.96;;;;-62